Time;durP1;ratioP1;P1;durP2;ratioP2;P2;SDS_P1;SDS_P2;PMS_P1;PMS_P2;Temp;Humidity;BMP_temperature;BMP_pressure;BME280_temperature;BME280_humidity;BME280_pressure;Samples;Min_cycle;Max_cycle;Signal;HPM_P1;HPM_P2
2022/05/03 00:01:21;;;;;;;1.45;0.95;;;19.70;41.30;19.00;101481.00;;;;5021370;28;20049;-70
2022/05/03 00:04:20;;;;;;;2.72;0.88;;;19.80;41.30;19.00;101479.00;;;;5016911;28;20045;-70
2022/05/03 00:07:28;;;;;;;2.00;0.70;;;19.80;41.30;18.90;101472.00;;;;5040768;28;20175;-71
2022/05/03 00:10:39;;;;;;;1.05;0.90;;;19.80;41.30;19.00;101481.00;;;;5043783;28;20091;-70
2022/05/03 00:13:36;;;;;;;1.20;1.10;;;19.80;41.40;18.90;101480.00;;;;5039635;28;20059;-70
2022/05/03 00:16:22;;;;;;;0.98;0.90;;;19.70;41.30;18.90;101480.00;;;;5014480;28;20080;-71
2022/05/03 00:19:09;;;;;;;2.50;0.90;;;19.70;41.40;18.90;101490.00;;;;5025975;28;20053;-70
2022/05/03 00:21:55;;;;;;;0.80;0.80;;;19.70;41.40;18.90;101481.00;;;;5036228;28;20115;-71
2022/05/03 00:24:41;;;;;;;1.35;0.85;;;19.70;41.40;18.90;101481.00;;;;5019568;28;20394;-71
2022/05/03 00:27:28;;;;;;;1.00;0.75;;;19.70;41.40;18.90;101490.00;;;;5033057;28;20041;-70
2022/05/03 00:30:14;;;;;;;1.73;1.15;;;19.70;41.40;18.90;101479.00;;;;5034205;28;20418;-71
2022/05/03 00:33:02;;;;;;;1.10;0.90;;;19.70;41.40;18.90;101483.00;;;;5034704;28;20079;-70
2022/05/03 00:35:49;;;;;;;0.82;0.70;;;19.80;41.50;18.90;101474.00;;;;5028043;28;20088;-70
2022/05/03 00:38:35;;;;;;;1.90;0.75;;;19.70;41.50;18.90;101470.00;;;;5036571;28;20033;-70
2022/05/03 00:41:43;;;;;;;1.38;0.90;;;19.60;41.40;18.90;101476.00;;;;5023275;28;20044;-70
2022/05/03 00:44:58;;;;;;;1.20;0.90;;;19.60;41.40;18.80;101471.00;;;;5036376;28;20045;-71
2022/05/03 00:47:53;;;;;;;1.00;0.93;;;19.70;41.40;18.80;101476.00;;;;5032699;28;20116;-70
2022/05/03 00:50:43;;;;;;;2.00;1.15;;;19.60;41.50;18.80;101478.00;;;;5040730;28;20393;-70
2022/05/03 00:53:34;;;;;;;1.20;0.90;;;19.70;41.40;18.80;101475.00;;;;5010550;28;20041;-71
2022/05/03 00:56:55;;;;;;;2.05;1.00;;;19.60;41.40;18.80;101472.00;;;;5024918;28;20052;-70
2022/05/03 01:00:14;;;;;;;1.10;0.80;;;19.60;41.50;18.80;101470.00;;;;5037986;28;20040;-71
2022/05/03 01:03:30;;;;;;;1.40;0.70;;;19.60;41.40;18.80;101461.00;;;;5021568;28;20120;-70
2022/05/03 01:06:46;;;;;;;1.10;1.00;;;19.60;41.40;18.80;101466.00;;;;4996672;28;20291;-71
2022/05/03 01:09:41;;;;;;;2.35;1.05;;;19.60;41.40;18.80;101466.00;;;;5041134;28;20102;-71
2022/05/03 01:12:46;;;;;;;1.60;1.17;;;19.60;41.50;18.80;101476.00;;;;5017860;28;20037;-71
2022/05/03 01:15:37;;;;;;;0.98;0.88;;;19.70;41.60;18.80;101469.00;;;;5022836;28;20041;-70
2022/05/03 01:18:47;;;;;;;0.85;0.80;;;19.60;41.50;18.80;101463.00;;;;5033249;28;20037;-70
2022/05/03 01:22:00;;;;;;;1.15;1.00;;;19.50;41.50;18.70;101470.00;;;;5014117;28;20041;-71
2022/05/03 01:25:22;;;;;;;1.10;1.00;;;19.50;41.50;18.70;101462.00;;;;5037617;28;20037;-70
2022/05/03 01:28:31;;;;;;;1.20;1.10;;;19.50;41.50;18.70;101462.00;;;;5035418;28;20411;-70
2022/05/03 01:31:17;;;;;;;1.80;0.88;;;19.50;42.20;18.70;101451.00;;;;5025236;28;20045;-70
2022/05/03 01:34:03;;;;;;;1.50;1.00;;;19.60;41.50;18.70;101458.00;;;;5025789;28;20042;-70
2022/05/03 01:37:30;;;;;;;2.75;1.55;;;19.60;41.50;18.70;101462.00;;;;5034606;28;20037;-70
2022/05/03 01:40:29;;;;;;;1.45;1.08;;;19.50;41.50;18.70;101471.00;;;;5004737;28;20124;-70
2022/05/03 01:44:13;;;;;;;1.40;1.10;;;19.50;41.50;18.70;101457.00;;;;5014578;28;20045;-70
2022/05/03 01:47:32;;;;;;;2.08;1.05;;;19.50;41.50;18.70;101447.00;;;;5040057;28;20037;-70
2022/05/03 01:51:00;;;;;;;1.60;1.10;;;19.50;41.50;18.70;101450.00;;;;5024096;28;20511;-71
2022/05/03 01:53:46;;;;;;;1.33;1.00;;;19.50;41.50;18.70;101451.00;;;;5018605;28;20063;-70
2022/05/03 01:57:03;;;;;;;1.38;0.95;;;19.50;41.50;18.70;101447.00;;;;5010554;28;20158;-70
2022/05/03 02:00:15;;;;;;;1.38;1.10;;;19.40;41.40;18.70;101458.00;;;;5028281;28;20049;-71
2022/05/03 02:03:16;;;;;;;1.05;0.95;;;19.50;41.60;18.70;101458.00;;;;5027037;28;20430;-70
2022/05/03 02:06:10;;;;;;;2.80;1.40;;;19.50;41.50;18.70;101443.00;;;;5026184;28;20037;-70
2022/05/03 02:09:04;;;;;;;1.67;1.20;;;19.50;42.20;18.70;101446.00;;;;5024082;28;20566;-70
2022/05/03 02:12:13;;;;;;;1.65;1.17;;;19.50;41.60;18.60;101455.00;;;;5020691;28;20033;-70
2022/05/03 02:15:11;;;;;;;;;;;19.40;41.50;18.60;101459.00;;;;5022949;28;20388;-70
2022/05/03 02:18:05;;;;;;;2.58;1.23;;;19.50;41.60;18.60;101458.00;;;;5038369;28;20295;-70
2022/05/03 02:21:17;;;;;;;1.25;1.00;;;19.50;41.50;18.60;101450.00;;;;5006590;28;20128;-70
2022/05/03 02:24:09;;;;;;;1.75;1.23;;;19.40;41.40;18.60;101454.00;;;;5033102;28;20049;-71
2022/05/03 02:27:07;;;;;;;1.85;1.15;;;19.40;41.50;18.60;101448.00;;;;5024772;28;20045;-70
2022/05/03 02:29:53;;;;;;;1.27;1.15;;;19.40;41.50;18.60;101451.00;;;;5020777;28;20463;-70
2022/05/03 02:33:04;;;;;;;1.75;1.15;;;19.40;41.50;18.60;101449.00;;;;5021717;28;20111;-71
2022/05/03 02:35:55;;;;;;;1.38;1.13;;;19.40;41.50;18.60;101442.00;;;;5036503;28;20037;-70
2022/05/03 02:38:56;;;;;;;2.03;1.20;;;19.40;41.50;18.60;101448.00;;;;5026638;28;20029;-70
2022/05/03 02:41:42;;;;;;;2.25;1.30;;;19.40;41.50;18.60;101442.00;;;;5012413;28;20034;-70
2022/05/03 02:44:31;;;;;;;1.70;1.25;;;19.40;41.50;18.60;101448.00;;;;5015653;28;20041;-70
2022/05/03 02:47:42;;;;;;;1.83;1.10;;;19.40;41.50;18.60;101459.00;;;;5037249;28;20053;-71
2022/05/03 02:50:52;;;;;;;1.20;1.00;;;19.40;41.50;18.60;101446.00;;;;5040673;28;20094;-71
2022/05/03 02:53:45;;;;;;;1.15;1.00;;;19.40;41.40;18.60;101442.00;;;;5008259;28;20124;-71
2022/05/03 02:56:49;;;;;;;1.67;1.17;;;19.40;41.50;18.60;101442.00;;;;5023502;28;20045;-70
2022/05/03 03:03:14;;;;;;;1.23;1.10;;;19.40;41.50;18.50;101438.00;;;;5012226;28;20029;-71
2022/05/03 03:06:01;;;;;;;1.63;1.17;;;19.40;41.50;18.50;101437.00;;;;5021979;28;20076;-70
2022/05/03 03:08:47;;;;;;;1.70;1.50;;;19.30;41.40;18.50;101441.00;;;;5036202;28;20041;-70
2022/05/03 03:11:52;;;;;;;2.50;1.23;;;19.40;41.50;18.50;101441.00;;;;5005669;28;20037;-70
2022/05/03 03:14:48;;;;;;;1.40;1.30;;;19.30;41.40;18.50;101440.00;;;;5022328;28;20120;-70
2022/05/03 03:17:50;;;;;;;1.85;1.23;;;19.30;41.40;18.50;101435.00;;;;5034113;28;20040;-70
2022/05/03 03:20:36;;;;;;;1.55;1.40;;;19.30;41.40;18.50;101437.00;;;;5038082;28;20045;-71
2022/05/03 03:23:28;;;;;;;2.60;1.30;;;19.30;41.50;18.50;101436.00;;;;5010307;28;20533;-71
2022/05/03 03:26:14;;;;;;;1.83;1.20;;;19.30;41.50;18.50;101434.00;;;;5026556;28;20478;-70
2022/05/03 03:29:00;;;;;;;1.52;1.42;;;19.30;41.50;18.50;101442.00;;;;5010803;28;20186;-70
2022/05/03 03:31:46;;;;;;;1.90;1.02;;;19.30;41.40;18.50;101432.00;;;;5023703;28;20033;-70
2022/05/03 03:34:32;;;;;;;2.28;1.38;;;19.40;41.50;18.50;101436.00;;;;5009882;28;20240;-70
2022/05/03 03:37:18;;;;;;;2.50;1.48;;;19.30;41.40;18.50;101440.00;;;;5026453;28;20045;-71
2022/05/03 03:40:05;;;;;;;1.25;1.15;;;19.30;41.50;18.50;101435.00;;;;5019799;28;20479;-70
2022/05/03 03:42:51;;;;;;;1.70;1.52;;;19.30;41.40;18.50;101438.00;;;;5024929;28;20403;-70
2022/05/03 03:45:37;;;;;;;1.92;0.90;;;19.30;41.40;18.40;101443.00;;;;5039191;28;20099;-70
2022/05/03 03:48:24;;;;;;;1.70;1.20;;;19.10;41.20;18.40;101433.00;;;;5020673;28;20054;-70
2022/05/03 03:51:10;;;;;;;1.77;1.15;;;19.20;41.30;18.40;101440.00;;;;5042533;28;20422;-71
2022/05/03 03:53:56;;;;;;;1.70;1.40;;;19.20;41.40;18.40;101434.00;;;;5007281;28;20069;-70
2022/05/03 03:56:42;;;;;;;2.10;1.25;;;19.20;41.40;18.40;101449.00;;;;5012958;28;20049;-70
2022/05/03 03:59:30;;;;;;;1.73;1.25;;;19.20;41.40;18.40;101434.00;;;;5013647;28;20060;-70
2022/05/03 04:02:16;;;;;;;;;;;19.20;41.40;18.40;101446.00;;;;5024524;28;20094;-70
2022/05/03 04:05:02;;;;;;;1.48;1.30;;;19.20;41.40;18.40;101443.00;;;;5032554;28;19913;-70
2022/05/03 04:07:49;;;;;;;1.48;1.20;;;19.20;41.30;18.40;101453.00;;;;5016667;28;20131;-70
2022/05/03 04:10:35;;;;;;;2.97;1.60;;;19.20;41.30;18.40;101456.00;;;;5034948;28;20077;-70
2022/05/03 04:13:21;;;;;;;1.25;1.05;;;19.20;41.30;18.40;101450.00;;;;5032753;28;20044;-70
2022/05/03 04:16:08;;;;;;;1.85;1.30;;;19.20;41.30;18.40;101451.00;;;;5006364;28;20491;-70
2022/05/03 04:18:54;;;;;;;1.70;1.20;;;19.20;41.30;18.40;101459.00;;;;5024294;28;20038;-70
2022/05/03 04:21:40;;;;;;;1.15;1.02;;;19.20;41.30;18.30;101454.00;;;;5030975;28;20568;-70
2022/05/03 04:24:26;;;;;;;1.10;1.00;;;19.20;41.30;18.30;101457.00;;;;5037136;28;20037;-71
2022/05/03 04:27:12;;;;;;;1.77;1.13;;;19.10;41.20;18.30;101455.00;;;;5038597;28;20522;-71
2022/05/03 04:29:59;;;;;;;1.58;1.10;;;19.10;41.20;18.30;101454.00;;;;5034268;28;20044;-71
2022/05/03 04:32:45;;;;;;;1.50;1.25;;;19.10;41.20;18.30;101454.00;;;;5022371;28;20045;-70
2022/05/03 04:35:31;;;;;;;1.38;1.27;;;19.10;41.20;18.30;101466.00;;;;5037562;28;20049;-70
2022/05/03 04:38:18;;;;;;;1.40;1.30;;;19.10;41.20;18.30;101457.00;;;;5036923;28;20049;-70
2022/05/03 04:41:04;;;;;;;1.70;1.60;;;19.10;41.20;18.30;101464.00;;;;5037883;28;20052;-71
2022/05/03 04:43:50;;;;;;;2.13;1.33;;;19.10;41.20;18.30;101463.00;;;;5038949;28;20519;-71
2022/05/03 04:46:36;;;;;;;1.33;1.23;;;19.10;41.20;18.30;101469.00;;;;5037825;28;20043;-70
2022/05/03 04:49:22;;;;;;;1.70;1.25;;;19.10;41.20;18.30;101474.00;;;;5038011;28;20071;-70
2022/05/03 04:52:09;;;;;;;4.03;1.20;;;19.10;41.30;18.30;101468.00;;;;5037325;28;20045;-70
2022/05/03 04:54:55;;;;;;;1.50;1.23;;;19.20;41.30;18.30;101469.00;;;;5023853;28;20080;-71
2022/05/03 04:57:41;;;;;;;1.75;1.13;;;19.10;41.30;18.30;101475.00;;;;5033365;28;20272;-71
2022/05/03 05:00:27;;;;;;;1.40;1.30;;;19.10;41.20;18.30;101472.00;;;;5035011;28;20059;-70
2022/05/03 05:03:13;;;;;;;1.73;1.30;;;19.10;41.20;18.30;101483.00;;;;5035360;28;20048;-70
2022/05/03 05:05:59;;;;;;;1.40;1.30;;;19.10;41.20;18.30;101481.00;;;;5035865;28;20041;-70
2022/05/03 05:08:45;;;;;;;1.65;1.30;;;19.10;41.20;18.30;101479.00;;;;5032639;28;20049;-71
2022/05/03 05:11:32;;;;;;;2.95;1.48;;;19.10;41.30;18.30;101485.00;;;;5035558;28;20064;-70
2022/05/03 05:14:20;;;;;;;2.97;1.23;;;19.00;41.20;18.30;101494.00;;;;5023686;28;20049;-70
2022/05/03 05:17:06;;;;;;;1.52;1.40;;;19.10;41.20;18.30;101498.00;;;;5022694;28;20065;-70
2022/05/03 05:19:52;;;;;;;1.63;1.35;;;19.10;41.30;18.30;101489.00;;;;5039958;28;20037;-70
2022/05/03 05:22:38;;;;;;;2.10;1.20;;;19.10;41.30;18.30;101491.00;;;;5031266;28;20399;-71
2022/05/03 05:25:24;;;;;;;1.30;1.20;;;19.00;41.20;18.30;101497.00;;;;5037752;28;20056;-70
2022/05/03 05:28:10;;;;;;;4.18;1.52;;;19.10;41.30;18.30;101494.00;;;;5037113;28;20045;-70
2022/05/03 05:30:57;;;;;;;1.65;1.35;;;19.00;41.20;18.30;101498.00;;;;5034939;28;20046;-70
2022/05/03 05:33:43;;;;;;;2.67;1.23;;;19.10;41.30;18.30;101490.00;;;;5036194;28;20132;-71
2022/05/03 05:36:29;;;;;;;2.17;1.17;;;19.10;41.30;18.30;101502.00;;;;5035852;28;20049;-71
2022/05/03 05:39:15;;;;;;;1.85;1.25;;;19.00;41.20;18.30;101503.00;;;;5038368;28;20452;-70
2022/05/03 05:42:01;;;;;;;1.27;1.17;;;19.10;41.30;18.30;101501.00;;;;5032464;28;20059;-71
2022/05/03 05:44:47;;;;;;;2.10;1.40;;;19.10;41.30;18.30;101502.00;;;;5036142;28;20446;-71
2022/05/03 05:47:33;;;;;;;2.30;1.67;;;19.10;41.30;18.30;101506.00;;;;5036542;28;20366;-71
2022/05/03 05:50:19;;;;;;;2.70;1.40;;;19.20;41.30;18.30;101515.00;;;;5016529;28;20499;-70
2022/05/03 05:56:10;;;;;;;2.03;1.33;;;19.10;41.30;18.30;101509.00;;;;5038799;28;20107;-71
2022/05/03 05:58:56;;;;;;;2.55;1.50;;;19.10;41.30;18.30;101514.00;;;;5017609;28;20459;-70
2022/05/03 06:01:42;;;;;;;6.55;1.90;;;19.10;41.30;18.30;101511.00;;;;5037212;28;20034;-71
2022/05/03 06:04:29;;;;;;;3.38;1.50;;;19.10;41.20;18.30;101515.00;;;;5024435;28;20038;-70
2022/05/03 06:07:15;;;;;;;3.88;1.70;;;19.10;41.20;18.30;101514.00;;;;5040393;28;20501;-70
2022/05/03 06:10:01;;;;;;;3.03;1.67;;;19.10;41.20;18.30;101510.00;;;;5034257;28;20162;-70
2022/05/03 06:12:47;;;;;;;3.08;2.10;;;19.10;41.20;18.30;101511.00;;;;5023672;28;20438;-71
2022/05/03 06:15:33;;;;;;;2.38;1.70;;;19.20;41.30;18.30;101517.00;;;;5030231;28;20394;-70
2022/05/03 06:18:20;;;;;;;1.95;1.55;;;19.10;41.20;18.30;101515.00;;;;5044584;28;20043;-70
2022/05/03 06:21:07;;;;;;;2.30;1.52;;;19.10;41.20;18.30;101521.00;;;;5024221;28;20123;-71
2022/05/03 06:23:53;;;;;;;3.63;1.60;;;19.20;41.30;18.30;101514.00;;;;5043328;28;20029;-71
2022/05/03 06:26:40;;;;;;;1.90;1.45;;;19.20;41.30;18.30;101509.00;;;;5044933;28;20045;-71
2022/05/03 06:29:26;;;;;;;3.40;1.35;;;19.20;41.20;18.30;101505.00;;;;5025300;28;20037;-70
2022/05/03 06:32:12;;;;;;;1.77;1.40;;;19.20;41.20;18.30;101517.00;;;;5041443;28;20710;-70
2022/05/03 06:34:59;;;;;;;2.95;1.48;;;19.20;41.20;18.30;101515.00;;;;5045439;28;20049;-71
2022/05/03 06:37:45;;;;;;;2.20;1.38;;;19.20;41.90;18.30;101515.00;;;;5027406;28;20120;-71
2022/05/03 06:40:31;;;;;;;1.83;1.33;;;19.20;41.20;18.30;101522.00;;;;5042108;28;20057;-70
2022/05/03 06:43:17;;;;;;;1.60;1.50;;;19.20;41.20;18.40;101514.00;;;;5039051;28;20073;-71
2022/05/03 06:46:04;;;;;;;2.08;1.23;;;19.20;41.20;18.40;101520.00;;;;5041233;28;20045;-71
2022/05/03 06:48:50;;;;;;;2.20;1.40;;;19.20;41.10;18.40;101512.00;;;;5043583;28;20052;-71
2022/05/03 06:51:36;;;;;;;3.08;1.63;;;19.20;41.10;18.40;101522.00;;;;5036379;28;20425;-71
2022/05/03 06:54:22;;;;;;;2.55;1.25;;;19.20;41.10;18.40;101525.00;;;;5039323;28;20107;-71
2022/05/03 06:57:08;;;;;;;1.80;1.20;;;19.30;41.20;18.40;101535.00;;;;5043539;28;20037;-71
2022/05/03 06:59:54;;;;;;;1.55;1.20;;;19.30;41.10;18.40;101531.00;;;;5043977;28;20772;-71
2022/05/03 07:02:41;;;;;;;1.77;1.25;;;19.30;41.10;18.40;101526.00;;;;5027282;28;20037;-71
2022/05/03 07:05:27;;;;;;;3.13;1.38;;;19.30;41.10;18.40;101529.00;;;;5023826;28;20057;-71
2022/05/03 07:08:13;;;;;;;1.20;1.10;;;19.30;41.10;18.40;101532.00;;;;5036646;28;20045;-70
2022/05/03 07:10:59;;;;;;;2.72;1.25;;;19.30;41.10;18.40;101515.00;;;;5034049;28;20386;-71
2022/05/03 07:13:46;;;;;;;1.52;1.20;;;19.30;41.00;18.40;101527.00;;;;5043172;28;20052;-70
2022/05/03 07:16:32;;;;;;;3.95;1.50;;;19.30;41.00;18.40;101532.00;;;;5030841;28;20479;-70
2022/05/03 07:25:26;;;;;;;2.03;1.20;;;19.30;41.00;18.40;101530.00;;;;5043411;28;20101;-70
2022/05/03 07:28:13;;;;;;;1.38;1.00;;;19.30;41.00;18.40;101544.00;;;;5034063;28;20068;-71
2022/05/03 07:30:59;;;;;;;2.08;0.95;;;19.30;40.90;18.40;101537.00;;;;5037207;28;20037;-71
2022/05/03 07:33:45;;;;;;;1.75;1.20;;;19.30;40.90;18.40;101540.00;;;;5034577;28;20033;-71
2022/05/03 07:36:31;;;;;;;2.25;0.90;;;19.40;40.90;18.40;101536.00;;;;5046869;28;20051;-71
2022/05/03 07:39:17;;;;;;;0.93;0.90;;;19.40;40.80;18.50;101543.00;;;;5035038;28;20717;-71
2022/05/03 07:42:04;;;;;;;1.63;1.02;;;19.40;40.80;18.50;101537.00;;;;5039277;28;20038;-70
2022/05/03 07:44:50;;;;;;;1.90;1.15;;;19.40;40.80;18.50;101540.00;;;;5036240;28;20044;-70
2022/05/03 07:47:36;;;;;;;1.52;0.90;;;19.40;40.70;18.50;101536.00;;;;5037272;28;20041;-70
2022/05/03 07:50:22;;;;;;;1.33;1.13;;;19.40;40.70;18.50;101533.00;;;;5035206;28;20128;-71
2022/05/03 07:53:08;;;;;;;1.67;0.93;;;19.40;40.70;18.50;101538.00;;;;5040348;28;20056;-70
2022/05/03 07:55:55;;;;;;;1.20;1.00;;;19.40;40.70;18.50;101536.00;;;;5037758;28;20539;-70
2022/05/03 07:58:41;;;;;;;1.40;1.00;;;19.40;40.60;18.50;101542.00;;;;5039063;28;20037;-70
2022/05/03 08:01:27;;;;;;;1.85;1.30;;;19.40;40.60;18.50;101538.00;;;;5023515;28;20041;-70
2022/05/03 08:04:13;;;;;;;1.60;0.80;;;19.40;40.60;18.50;101539.00;;;;5037173;28;20537;-70
2022/05/03 08:06:59;;;;;;;1.20;1.10;;;19.40;40.60;18.50;101546.00;;;;5033422;28;20072;-70
2022/05/03 08:09:46;;;;;;;1.17;0.90;;;19.40;40.50;18.50;101543.00;;;;5035728;28;20044;-71
2022/05/03 08:12:32;;;;;;;1.20;1.10;;;19.40;40.60;18.50;101550.00;;;;5026490;28;20102;-71
2022/05/03 08:15:19;;;;;;;1.98;1.20;;;19.50;40.60;18.50;101544.00;;;;5044373;28;20041;-71
2022/05/03 08:18:06;;;;;;;2.15;1.10;;;19.50;40.60;18.50;101548.00;;;;5038973;28;20388;-70
2022/05/03 08:20:53;;;;;;;1.05;0.95;;;19.50;40.60;18.50;101556.00;;;;5034073;28;20041;-70
2022/05/03 08:23:39;;;;;;;1.73;1.40;;;19.50;40.60;18.50;101554.00;;;;5037969;28;20037;-71
2022/05/03 08:26:25;;;;;;;1.30;1.13;;;19.50;40.60;18.50;101551.00;;;;5035726;28;20633;-71
2022/05/03 08:29:11;;;;;;;2.00;1.20;;;19.50;40.50;18.50;101550.00;;;;5040081;28;20052;-71
2022/05/03 08:31:59;;;;;;;3.58;1.35;;;19.50;40.50;18.50;101558.00;;;;5037717;28;20056;-71
2022/05/03 08:34:45;;;;;;;1.42;1.30;;;19.50;40.50;18.50;101559.00;;;;5033795;28;20044;-70
2022/05/03 08:43:40;;;;;;;2.38;1.35;;;19.50;40.50;18.50;101554.00;;;;5033874;28;20037;-71
2022/05/03 08:46:26;;;;;;;1.15;1.05;;;19.50;40.50;18.50;101548.00;;;;5036586;28;20052;-71
2022/05/03 08:49:17;;;;;;;1.67;1.30;;;19.50;40.50;18.60;101545.00;;;;5022935;28;20563;-71
2022/05/03 08:52:03;;;;;;;1.60;1.30;;;19.50;40.60;18.60;101546.00;;;;5009009;28;20100;-71
2022/05/03 08:54:50;;;;;;;1.83;1.27;;;19.50;40.50;18.60;101550.00;;;;5035945;28;20548;-71
2022/05/03 08:57:36;;;;;;;1.30;1.20;;;19.50;40.60;18.60;101544.00;;;;5019348;28;20372;-70
2022/05/03 09:00:22;;;;;;;3.58;1.67;;;19.50;40.50;18.60;101535.00;;;;5023954;28;20048;-71
2022/05/03 09:03:08;;;;;;;1.98;1.63;;;19.50;40.50;18.60;101537.00;;;;5032431;28;20438;-71
2022/05/03 09:05:54;;;;;;;2.03;1.45;;;19.60;40.60;18.60;101540.00;;;;5035823;28;20033;-70
2022/05/03 09:08:40;;;;;;;1.98;1.17;;;19.50;40.50;18.60;101538.00;;;;5035801;28;20399;-70
2022/05/03 09:11:26;;;;;;;3.83;1.60;;;19.60;40.60;18.60;101540.00;;;;5032895;28;20056;-71
2022/05/03 09:14:33;;;;;;;2.40;1.63;;;19.60;40.60;18.60;101533.00;;;;4998345;28;20228;-70
2022/05/03 09:17:43;;;;;;;3.50;1.83;;;19.60;40.60;18.60;101538.00;;;;5036317;28;20128;-71
2022/05/03 09:23:50;;;;;;;3.88;1.60;;;19.60;40.60;18.60;101536.00;;;;5022074;28;20120;-70
2022/05/03 09:26:37;;;;;;;3.30;2.08;;;19.50;40.50;18.60;101539.00;;;;5018500;28;20048;-71
2022/05/03 09:29:23;;;;;;;2.30;1.70;;;19.50;40.60;18.60;101546.00;;;;5024487;28;20049;-70
2022/05/03 09:32:09;;;;;;;2.25;1.80;;;19.60;40.70;18.60;101546.00;;;;5039201;28;20036;-70
2022/05/03 09:34:55;;;;;;;3.00;1.77;;;19.50;40.70;18.60;101543.00;;;;5036395;28;20034;-70
2022/05/03 09:37:42;;;;;;;3.13;1.92;;;19.60;40.70;18.60;101541.00;;;;5038630;28;20414;-70
2022/05/03 09:40:29;;;;;;;2.30;2.05;;;19.60;40.80;18.60;101536.00;;;;5020466;28;20064;-70
2022/05/03 09:43:16;;;;;;;5.15;2.08;;;19.60;40.80;18.60;101543.00;;;;5041900;28;20037;-70
2022/05/03 09:46:05;;;;;;;3.83;2.40;;;19.60;40.80;18.70;101535.00;;;;5024281;28;20091;-70
2022/05/03 09:48:52;;;;;;;2.45;1.88;;;19.60;40.90;18.70;101524.00;;;;5038649;28;20549;-70
2022/05/03 09:51:38;;;;;;;2.45;1.90;;;19.60;40.90;18.70;101534.00;;;;5041976;28;20246;-70
2022/05/03 09:54:24;;;;;;;2.78;1.88;;;19.70;41.00;18.70;101530.00;;;;5041193;28;20399;-70
2022/05/03 09:57:10;;;;;;;3.67;2.10;;;19.70;41.00;18.70;101530.00;;;;5003394;28;20037;-70
2022/05/03 09:59:57;;;;;;;2.45;1.75;;;19.70;41.00;18.70;101533.00;;;;5006716;28;20037;-70
2022/05/03 10:02:43;;;;;;;2.80;1.98;;;19.60;41.00;18.70;101535.00;;;;5035759;28;20485;-70
2022/05/03 10:05:30;;;;;;;2.55;1.92;;;19.70;41.10;18.70;101535.00;;;;5025136;28;20484;-70
2022/05/03 10:08:17;;;;;;;3.25;2.30;;;19.70;41.10;18.70;101536.00;;;;5023674;28;20486;-70
2022/05/03 10:11:03;;;;;;;2.50;2.00;;;19.70;41.20;18.70;101524.00;;;;5013079;28;20041;-70
2022/05/03 10:13:54;;;;;;;3.13;1.90;;;19.70;41.20;18.70;101519.00;;;;5008240;28;20317;-70
2022/05/03 10:22:50;;;;;;;1.70;1.60;;;19.70;41.20;18.70;101518.00;;;;5018850;28;20257;-70
2022/05/03 10:25:42;;;;;;;2.83;1.95;;;19.70;41.20;18.70;101520.00;;;;5022821;28;20053;-70
2022/05/03 10:29:09;;;;;;;2.17;1.67;;;19.70;41.20;18.70;101511.00;;;;5037618;28;20047;-70
2022/05/03 10:32:07;;;;;;;2.25;1.63;;;19.70;41.20;18.70;101514.00;;;;5041119;28;20477;-70
2022/05/03 10:34:56;;;;;;;2.38;1.55;;;19.80;41.20;18.70;101520.00;;;;5033934;28;20391;-70
2022/05/03 10:37:43;;;;;;;2.65;1.80;;;19.80;41.20;18.70;101526.00;;;;5021808;28;20444;-71
2022/05/03 10:40:39;;;;;;;3.40;1.98;;;19.80;41.30;18.70;101525.00;;;;5038816;28;20469;-71
2022/05/03 10:43:26;;;;;;;3.03;1.48;;;19.80;41.30;18.70;101519.00;;;;5011494;28;20033;-71
2022/05/03 10:46:22;;;;;;;2.85;2.20;;;19.80;41.30;18.80;101523.00;;;;5039445;28;20544;-71
2022/05/03 10:49:14;;;;;;;1.63;1.52;;;19.80;41.30;18.80;101507.00;;;;5014482;28;20518;-70
2022/05/03 10:52:06;;;;;;;2.20;1.80;;;19.80;41.40;18.80;101507.00;;;;5025915;28;20045;-70
2022/05/03 10:55:08;;;;;;;2.28;1.63;;;19.80;41.30;18.80;101506.00;;;;5016878;28;20128;-70
2022/05/03 10:58:23;;;;;;;1.77;1.20;;;19.80;41.30;18.80;101499.00;;;;5026109;28;20075;-70
2022/05/03 11:01:20;;;;;;;2.17;1.45;;;19.80;41.40;18.80;101494.00;;;;5039812;28;20084;-71
2022/05/03 11:04:08;;;;;;;1.80;1.40;;;19.80;41.40;18.80;101492.00;;;;5010196;28;20045;-70
2022/05/03 11:06:54;;;;;;;1.48;1.20;;;19.80;41.50;18.80;101495.00;;;;5008735;28;20187;-70
2022/05/03 11:09:40;;;;;;;2.28;1.55;;;19.80;41.30;18.80;101499.00;;;;5024731;28;20026;-70
2022/05/03 11:12:49;;;;;;;2.40;2.20;;;19.80;41.30;18.80;101494.00;;;;5035667;28;20029;-71
2022/05/03 11:16:13;;;;;;;1.45;1.30;;;19.80;41.40;18.80;101485.00;;;;5033148;28;20129;-70
2022/05/03 11:18:59;;;;;;;1.30;1.20;;;19.80;41.30;18.80;101489.00;;;;5021092;28;20372;-71
2022/05/03 11:21:46;;;;;;;2.78;1.52;;;19.80;41.30;18.80;101484.00;;;;5038731;28;20048;-70
2022/05/03 11:24:32;;;;;;;1.63;1.25;;;19.80;41.30;18.80;101483.00;;;;5024570;28;20048;-71
2022/05/03 11:27:19;;;;;;;3.55;2.10;;;19.80;41.30;18.80;101479.00;;;;5028370;28;20044;-70
2022/05/03 11:30:10;;;;;;;1.23;1.10;;;19.90;41.40;18.80;101482.00;;;;5024426;28;20041;-70
2022/05/03 11:32:57;;;;;;;1.95;1.30;;;19.90;41.40;18.80;101486.00;;;;5011029;28;20045;-70
2022/05/03 11:35:43;;;;;;;1.95;1.48;;;19.90;41.50;18.80;101481.00;;;;5035208;28;20045;-71
2022/05/03 11:38:29;;;;;;;1.55;1.35;;;19.90;41.40;18.80;101469.00;;;;5006025;28;20033;-70
2022/05/03 11:41:35;;;;;;;1.25;1.05;;;19.90;41.50;18.80;101479.00;;;;5036482;28;20423;-71
2022/05/03 11:44:21;;;;;;;1.25;1.10;;;19.80;41.40;18.80;101474.00;;;;5037839;28;20102;-71
2022/05/03 11:47:09;;;;;;;1.63;1.27;;;19.90;41.40;18.80;101468.00;;;;5038050;28;20087;-70
2022/05/03 11:49:56;;;;;;;1.75;1.40;;;19.90;41.50;18.80;101467.00;;;;5032211;28;20047;-70
2022/05/03 11:56:00;;;;;;;1.45;1.30;;;19.90;41.50;18.80;101464.00;;;;5031197;28;20509;-70
2022/05/03 11:58:46;;;;;;;1.30;1.20;;;19.90;41.50;18.90;101461.00;;;;5013018;28;20128;-71
2022/05/03 12:01:33;;;;;;;1.25;1.15;;;19.90;41.50;18.90;101470.00;;;;5025216;28;20073;-70
2022/05/03 12:04:20;;;;;;;1.27;1.10;;;19.90;41.50;18.90;101467.00;;;;5021499;28;20095;-71
2022/05/03 12:07:06;;;;;;;3.25;1.73;;;19.90;41.50;18.90;101461.00;;;;5036784;28;20044;-71
2022/05/03 12:09:52;;;;;;;1.88;1.45;;;19.90;41.50;18.90;101459.00;;;;5022493;28;20041;-71
2022/05/03 12:12:44;;;;;;;3.28;1.60;;;19.90;41.60;18.90;101457.00;;;;5040026;28;20045;-71
2022/05/03 12:15:30;;;;;;;2.65;1.83;;;19.90;41.60;18.90;101467.00;;;;5006671;28;20482;-70
2022/05/03 12:18:23;;;;;;;2.22;1.70;;;19.90;41.60;18.90;101453.00;;;;5035133;28;20053;-70
2022/05/03 12:21:21;;;;;;;2.80;2.10;;;19.90;41.70;18.90;101456.00;;;;5035451;28;20128;-71
2022/05/03 12:24:08;;;;;;;3.08;2.28;;;19.90;41.70;18.90;101449.00;;;;5018230;28;20481;-70
2022/05/03 12:26:54;;;;;;;3.77;2.50;;;19.90;41.70;18.90;101451.00;;;;5029668;28;20049;-71
2022/05/03 12:29:46;;;;;;;2.88;1.92;;;19.90;41.70;18.90;101452.00;;;;5001917;28;20279;-70
2022/05/03 12:32:32;;;;;;;3.85;2.22;;;20.00;41.90;18.90;101450.00;;;;5006052;28;20040;-70
2022/05/03 12:35:37;;;;;;;3.20;2.00;;;19.90;41.80;18.90;101447.00;;;;5021246;28;20041;-70
2022/05/03 12:38:25;;;;;;;2.70;2.33;;;20.00;41.90;18.90;101452.00;;;;5015045;28;20064;-70
2022/05/03 12:41:23;;;;;;;;;;;20.00;41.90;18.90;101449.00;;;;5035216;28;20425;-70
2022/05/03 12:44:13;;;;;;;2.60;2.40;;;20.00;41.80;18.90;101447.00;;;;5022329;28;19917;-71
2022/05/03 12:47:06;;;;;;;2.95;2.15;;;20.00;41.80;18.90;101437.00;;;;5008641;28;20383;-70
2022/05/03 12:49:53;;;;;;;4.30;2.72;;;20.00;41.80;18.90;101438.00;;;;5027384;28;20041;-70
2022/05/03 12:52:39;;;;;;;3.90;2.80;;;20.00;41.90;18.90;101439.00;;;;5032568;28;20037;-70
2022/05/03 12:55:25;;;;;;;4.80;2.80;;;20.00;41.90;18.90;101438.00;;;;5029025;28;20124;-70
2022/05/03 12:58:26;;;;;;;3.83;2.63;;;20.00;41.90;18.90;101439.00;;;;5034696;28;20044;-71
2022/05/03 13:01:13;;;;;;;3.13;2.72;;;20.00;41.90;18.90;101432.00;;;;5033155;28;20052;-71
2022/05/03 13:03:59;;;;;;;2.78;2.50;;;20.00;41.90;18.90;101421.00;;;;5036414;28;20041;-71